createdAt,value
2016-06-09T00:00:05.436Z,94.6
2016-06-09T00:00:15.421Z,94.6
2016-06-09T00:00:25.407Z,94.8
2016-06-09T00:00:35.407Z,94.6
2016-06-09T00:00:45.407Z,95.3
2016-06-09T00:00:55.407Z,94.5
2016-06-09T00:01:05.392Z,94.9
2016-06-09T00:01:15.392Z,94.8
2016-06-09T00:01:25.396Z,95.1
2016-06-09T00:01:35.396Z,95
2016-06-09T00:01:45.380Z,94.9
2016-06-09T00:01:55.380Z,94.6
2016-06-09T00:02:05.364Z,94.7
2016-06-09T00:02:15.364Z,94.9
2016-06-09T00:02:25.367Z,94.8
2016-06-09T00:02:35.352Z,94.8
2016-06-09T00:02:46.461Z,94.7
2016-06-09T00:02:55.352Z,94.8
2016-06-09T00:03:05.352Z,94.4
2016-06-09T00:03:15.195Z,94.7
2016-06-09T00:03:25.339Z,94.9
2016-06-09T00:03:36.027Z,94.8
2016-06-09T00:03:45.323Z,94.6
2016-06-09T00:03:55.323Z,94.5
2016-06-09T00:04:05.167Z,94.6
2016-06-09T00:04:15.308Z,94.7
2016-06-09T00:04:25.311Z,94.8
2016-06-09T00:04:35.295Z,94.4
2016-06-09T00:04:45.295Z,94.8
2016-06-09T00:04:55.295Z,95
2016-06-09T00:05:05.280Z,95
2016-06-09T00:05:15.280Z,94.9
2016-06-09T00:05:25.283Z,94.8
2016-06-09T00:05:35.267Z,94.8
2016-06-09T00:05:45.283Z,94.7
2016-06-09T00:05:55.251Z,95
2016-06-09T00:06:05.267Z,94.6
2016-06-09T00:06:15.267Z,95
2016-06-09T00:06:25.254Z,94.5
2016-06-09T00:06:35.098Z,94.6
2016-06-09T00:06:45.239Z,94.8
2016-06-09T00:06:55.239Z,94.7
2016-06-09T00:07:06.879Z,94.4
2016-06-09T00:07:15.223Z,95.1
2016-06-09T00:07:25.210Z,95.2
2016-06-09T00:07:35.210Z,94.8
2016-06-09T00:07:45.210Z,95
2016-06-09T00:07:55.210Z,95
2016-06-09T00:08:05.195Z,95.2
2016-06-09T00:08:15.195Z,94.8
2016-06-09T00:08:25.199Z,94.9
2016-06-09T00:08:35.183Z,95
2016-06-09T00:08:45.183Z,94.8
2016-06-09T00:08:55.168Z,94.8
2016-06-09T00:09:05.168Z,95.1
2016-06-09T00:09:15.168Z,95
2016-06-09T00:09:25.170Z,95
2016-06-09T00:09:35.154Z,94.8
2016-06-09T00:09:45.154Z,94.7
2016-06-09T00:09:55.154Z,94.6
2016-06-09T00:10:05.138Z,94.8
2016-06-09T00:10:15.138Z,95
2016-06-09T00:10:25.142Z,94.7
2016-06-09T00:10:35.127Z,95
2016-06-09T00:10:45.127Z,94.8
2016-06-09T00:10:55.127Z,95.2
2016-06-09T00:11:05.111Z,94.6
2016-06-09T00:11:15.111Z,94.8
2016-06-09T00:11:25.097Z,94.8
2016-06-09T00:11:35.097Z,94.8
2016-06-09T00:11:45.097Z,95.1
2016-06-09T00:11:55.082Z,95
2016-06-09T00:12:05.082Z,94.9
2016-06-09T00:12:15.066Z,95.2
2016-06-09T00:12:25.085Z,94.8
2016-06-09T00:12:35.069Z,94.7
2016-06-09T00:12:45.069Z,95.1
2016-06-09T00:12:55.054Z,94.6
2016-06-09T00:13:05.054Z,95.1
2016-06-09T00:13:15.054Z,94.7
2016-06-09T00:13:25.057Z,94.9
2016-06-09T00:13:35.041Z,95
2016-06-09T00:13:45.025Z,95
2016-06-09T00:13:55.041Z,95
2016-06-09T00:14:05.025Z,94.7
2016-06-09T00:14:15.010Z,94.9
2016-06-09T00:14:24.872Z,95.1
2016-06-09T00:14:35.013Z,95
2016-06-09T00:14:45.013Z,95.1
2016-06-09T00:14:55.013Z,94.7
2016-06-09T00:15:04.997Z,94.7
2016-06-09T00:15:14.981Z,94.8
2016-06-09T00:15:24.984Z,95
2016-06-09T00:15:34.984Z,95
2016-06-09T00:15:44.984Z,94.8
2016-06-09T00:15:54.969Z,94.8
2016-06-09T00:16:04.969Z,94.9
2016-06-09T00:16:14.953Z,94.9
2016-06-09T00:16:24.972Z,94.9
2016-06-09T00:16:34.956Z,95
2016-06-09T00:16:44.956Z,94.8
2016-06-09T00:16:54.941Z,94.8
2016-06-09T00:17:04.941Z,95
2016-06-09T00:17:14.925Z,94.5
2016-06-09T00:17:24.788Z,94.8
2016-06-09T00:17:34.929Z,94.8
2016-06-09T00:17:44.929Z,94.8
2016-06-09T00:17:55.116Z,94.7
2016-06-09T00:18:05.320Z,95
2016-06-09T00:18:15.601Z,94.8
2016-06-09T00:18:24.900Z,95.1
2016-06-09T00:18:35.868Z,94.7
2016-06-09T00:18:45.040Z,94.6
2016-06-09T00:18:54.759Z,94.6
2016-06-09T00:19:04.884Z,94.9
2016-06-09T00:19:14.884Z,94.8
2016-06-09T00:19:24.872Z,94.6
2016-06-09T00:19:34.888Z,94.6
2016-06-09T00:19:44.872Z,94.9
2016-06-09T00:19:54.872Z,94.6
2016-06-09T00:20:04.857Z,95.2
2016-06-09T00:20:14.857Z,95
2016-06-09T00:20:24.844Z,94.8
2016-06-09T00:20:34.844Z,94.9
2016-06-09T00:20:44.829Z,94.9
2016-06-09T00:20:54.829Z,94.6
2016-06-09T00:21:04.829Z,94.9
2016-06-09T00:21:14.829Z,94.9
2016-06-09T00:21:24.816Z,94.4
2016-06-09T00:21:34.816Z,94.8
2016-06-09T00:21:44.800Z,94.7
2016-06-09T00:21:54.800Z,94.7
2016-06-09T00:22:04.800Z,94.7
2016-06-09T00:22:14.785Z,95.2
2016-06-09T00:22:24.803Z,94.8
2016-06-09T00:22:34.788Z,94.6
2016-06-09T00:22:44.788Z,94.9
2016-06-09T00:22:54.772Z,94.7
2016-06-09T00:23:04.772Z,94.7
2016-06-09T00:23:14.772Z,94.7
2016-06-09T00:23:24.760Z,94.8
2016-06-09T00:23:34.760Z,94.7
2016-06-09T00:23:44.760Z,94.9
2016-06-09T00:23:54.760Z,94.8
2016-06-09T00:24:04.745Z,94.5
2016-06-09T00:24:14.745Z,94.6
2016-06-09T00:24:24.731Z,94.9
2016-06-09T00:24:34.731Z,94.8
2016-06-09T00:24:44.731Z,94.8
2016-06-09T00:24:54.716Z,94.8
2016-06-09T00:25:04.716Z,94.6
2016-06-09T00:25:14.700Z,94.4
2016-06-09T00:25:24.703Z,94.9
2016-06-09T00:25:34.703Z,94.6
2016-06-09T00:25:44.703Z,94.8
2016-06-09T00:25:54.687Z,94.7
2016-06-09T00:26:04.703Z,94.7
2016-06-09T00:26:14.687Z,94.9
2016-06-09T00:26:24.676Z,94.6
2016-06-09T00:26:34.691Z,94.6
2016-06-09T00:26:44.660Z,94.6
2016-06-09T00:26:54.660Z,95
2016-06-09T00:27:04.660Z,94.8
2016-06-09T00:27:14.644Z,94.6
2016-06-09T00:27:24.647Z,94.4
2016-06-09T00:27:34.647Z,94.7
2016-06-09T00:27:44.647Z,94.8
2016-06-09T00:27:54.632Z,94.6
2016-06-09T00:28:04.632Z,95
2016-06-09T00:28:14.616Z,94.8
2016-06-09T00:28:24.619Z,94.9
2016-06-09T00:28:34.619Z,94.7
2016-06-09T00:28:44.619Z,94.8
2016-06-09T00:28:54.604Z,94.9
2016-06-09T00:29:04.604Z,94.8
2016-06-09T00:29:14.604Z,94.5
2016-06-09T00:29:24.590Z,94.8
2016-06-09T00:29:34.590Z,94.4
2016-06-09T00:29:44.590Z,94.4
2016-06-09T00:29:54.574Z,94.3
2016-06-09T00:30:04.574Z,94.7
2016-06-09T00:30:14.574Z,94.9
2016-06-09T00:30:24.578Z,94.5
2016-06-09T00:30:34.563Z,95.1
2016-06-09T00:30:44.563Z,94.7
2016-06-09T00:30:54.547Z,94.7
2016-06-09T00:31:04.531Z,95
2016-06-09T00:31:14.531Z,94.4
2016-06-09T00:31:24.534Z,94.6
2016-06-09T00:31:34.534Z,94.7
2016-06-09T00:31:44.534Z,94.7
2016-06-09T00:31:54.519Z,94.7
2016-06-09T00:32:04.519Z,94.7
2016-06-09T00:32:14.519Z,94.5
2016-06-09T00:32:24.506Z,94.5
2016-06-09T00:32:34.506Z,94.7
2016-06-09T00:32:44.491Z,94.7
2016-06-09T00:32:54.944Z,94.7
2016-06-09T00:33:04.959Z,94.4
2016-06-09T00:33:14.491Z,94.3
2016-06-09T00:33:24.994Z,94.3
2016-06-09T00:33:34.494Z,94.3
2016-06-09T00:33:44.540Z,94.4
2016-06-09T00:33:54.306Z,94.3
2016-06-09T00:34:04.509Z,94.8
2016-06-09T00:34:14.462Z,94.7
2016-06-09T00:34:24.450Z,94.4
2016-06-09T00:34:34.434Z,94.5
2016-06-09T00:34:44.434Z,94.5
2016-06-09T00:34:54.450Z,94.4
2016-06-09T00:35:04.434Z,94.4
2016-06-09T00:35:14.418Z,94.6
2016-06-09T00:35:24.422Z,94.3
2016-06-09T00:35:34.422Z,94.4
2016-06-09T00:35:44.407Z,94.5
2016-06-09T00:35:54.407Z,94.4
2016-06-09T00:36:04.407Z,94.7
2016-06-09T00:36:14.391Z,94.8
2016-06-09T00:36:24.393Z,94.7
2016-06-09T00:36:34.393Z,94.7
2016-06-09T00:36:44.378Z,94.7
2016-06-09T00:36:54.378Z,94.9
2016-06-09T00:37:04.362Z,94.7
2016-06-09T00:37:14.362Z,94.7
2016-06-09T00:37:24.365Z,94.8
2016-06-09T00:37:34.349Z,94.6
2016-06-09T00:37:44.349Z,94.4
2016-06-09T00:37:54.193Z,94.8
2016-06-09T00:38:04.349Z,94.9
2016-06-09T00:38:14.334Z,94.8
2016-06-09T00:38:24.338Z,94.7
2016-06-09T00:38:34.322Z,94.6
2016-06-09T00:38:44.322Z,94.4
2016-06-09T00:38:54.338Z,94.9
2016-06-09T00:39:04.306Z,94.5
2016-06-09T00:39:14.306Z,94.9
2016-06-09T00:39:24.308Z,95.1
2016-06-09T00:39:34.308Z,94.9
2016-06-09T00:39:44.293Z,94.7
2016-06-09T00:39:54.293Z,94.5
2016-06-09T00:40:04.277Z,94.5
2016-06-09T00:40:14.277Z,94.6
2016-06-09T00:40:24.280Z,94.8
2016-06-09T00:40:34.280Z,94.6
2016-06-09T00:40:44.265Z,94.1
2016-06-09T00:40:54.265Z,94.8
2016-06-09T00:41:04.249Z,94.6
2016-06-09T00:41:14.249Z,94.6
2016-06-09T00:41:24.253Z,94.6
2016-06-09T00:41:34.253Z,94.7
2016-06-09T00:41:44.237Z,94.7
2016-06-09T00:41:54.237Z,94.7
2016-06-09T00:42:04.222Z,94.5
2016-06-09T00:42:14.222Z,94.6
2016-06-09T00:42:24.225Z,94.7
2016-06-09T00:42:34.209Z,94.5
2016-06-09T00:42:44.209Z,94.5
2016-06-09T00:42:54.209Z,94.8
2016-06-09T00:43:04.193Z,94.6
2016-06-09T00:43:14.209Z,94.9
2016-06-09T00:43:24.195Z,94.8
2016-06-09T00:43:34.180Z,94.8
2016-06-09T00:43:44.180Z,94.7
2016-06-09T00:43:54.180Z,94.7
2016-06-09T00:44:04.180Z,94.9
2016-06-09T00:44:14.164Z,94.4
2016-06-09T00:44:24.168Z,94.6
2016-06-09T00:44:34.153Z,94.5
2016-06-09T00:44:44.153Z,94.5
2016-06-09T00:44:54.153Z,94.5
2016-06-09T00:45:04.137Z,94.8
2016-06-09T00:45:14.137Z,94.7
2016-06-09T00:45:24.139Z,94.5
2016-06-09T00:45:34.139Z,94.7
2016-06-09T00:45:44.123Z,94.2
2016-06-09T00:45:54.123Z,94.6
2016-06-09T00:46:04.108Z,94.6
2016-06-09T00:46:14.108Z,94.9
2016-06-09T00:46:24.112Z,94.5
2016-06-09T00:46:34.096Z,94.6
2016-06-09T00:46:44.096Z,94.7
2016-06-09T00:46:54.096Z,94.8
2016-06-09T00:47:04.080Z,94.7
2016-06-09T00:47:14.080Z,94.7
2016-06-09T00:47:24.068Z,94.6
2016-06-09T00:47:34.068Z,95
2016-06-09T00:47:44.068Z,94.7
2016-06-09T00:47:54.068Z,94.5
2016-06-09T00:48:04.162Z,94.8
2016-06-09T00:48:14.068Z,95.2
2016-06-09T00:48:24.336Z,94.8
2016-06-09T00:48:34.774Z,94.6
2016-06-09T00:48:44.571Z,94.7
2016-06-09T00:48:54.040Z,94.7
2016-06-09T00:49:04.196Z,94.7
2016-06-09T00:49:14.024Z,95.1
2016-06-09T00:49:24.043Z,94.8
2016-06-09T00:49:34.011Z,94.5
2016-06-09T00:49:44.011Z,94.7
2016-06-09T00:49:54.011Z,94.8
2016-06-09T00:50:03.996Z,94.9
2016-06-09T00:50:13.996Z,94.9
2016-06-09T00:50:23.999Z,94.7
2016-06-09T00:50:33.983Z,94.7
2016-06-09T00:50:43.983Z,95.1
2016-06-09T00:50:53.967Z,94.9
2016-06-09T00:51:03.967Z,94.7
2016-06-09T00:51:13.967Z,94.6
2016-06-09T00:51:23.956Z,94.5
2016-06-09T00:51:33.956Z,94.9
2016-06-09T00:51:43.956Z,94.7
2016-06-09T00:51:53.956Z,94.9
2016-06-09T00:52:03.956Z,94.9
2016-06-09T00:52:13.956Z,94.8
2016-06-09T00:52:23.927Z,94.8
2016-06-09T00:52:33.942Z,94.6
2016-06-09T00:52:43.927Z,94.8
2016-06-09T00:52:53.911Z,94.6
2016-06-09T00:53:03.911Z,94.9
2016-06-09T00:53:13.911Z,95
2016-06-09T00:53:23.759Z,94.8
2016-06-09T00:53:33.899Z,94.7
2016-06-09T00:53:43.899Z,94.9
2016-06-09T00:53:53.884Z,94.8
2016-06-09T00:54:03.884Z,94.5
2016-06-09T00:54:13.884Z,94.6
2016-06-09T00:54:23.887Z,95.1
2016-06-09T00:54:33.871Z,94.7
2016-06-09T00:54:43.871Z,94.9
2016-06-09T00:54:53.855Z,94.8
2016-06-09T00:55:03.855Z,94.8
2016-06-09T00:55:13.855Z,94.8
2016-06-09T00:55:23.842Z,94.7
2016-06-09T00:55:33.842Z,94.7
2016-06-09T00:55:43.826Z,94.9
2016-06-09T00:55:53.826Z,95
2016-06-09T00:56:03.826Z,94.8
2016-06-09T00:56:13.826Z,94.8
2016-06-09T00:56:23.814Z,94.8
2016-06-09T00:56:33.814Z,94.8
2016-06-09T00:56:43.814Z,95
2016-06-09T00:56:53.798Z,94.7
2016-06-09T00:57:03.798Z,94.7
2016-06-09T00:57:13.798Z,94.6
2016-06-09T00:57:23.802Z,94.8
2016-06-09T00:57:33.786Z,94.5
2016-06-09T00:57:43.786Z,94.7
2016-06-09T00:57:53.786Z,94.7
2016-06-09T00:58:03.771Z,94.7
2016-06-09T00:58:13.771Z,94.8
2016-06-09T00:58:23.758Z,94.6
2016-06-09T00:58:33.758Z,94.7
2016-06-09T00:58:43.742Z,95
2016-06-09T00:58:53.742Z,94.6
2016-06-09T00:59:03.742Z,94.7
2016-06-09T00:59:13.742Z,94.7
2016-06-09T00:59:23.730Z,95
2016-06-09T00:59:33.730Z,94.3
2016-06-09T00:59:43.714Z,94.4
2016-06-09T00:59:53.714Z,94.5
2016-06-09T01:00:03.714Z,94.5
2016-06-09T01:00:13.699Z,94.5
2016-06-09T01:00:23.717Z,94.4
2016-06-09T01:00:33.702Z,94.5
2016-06-09T01:00:43.702Z,94.6
2016-06-09T01:00:53.686Z,94.3
2016-06-09T01:01:03.686Z,94.5
2016-06-09T01:01:13.670Z,94.4
2016-06-09T01:01:23.673Z,94.5
2016-06-09T01:01:33.673Z,94.3
2016-06-09T01:01:43.673Z,94.4
2016-06-09T01:01:53.673Z,94.8
2016-06-09T01:02:03.658Z,94.4
2016-06-09T01:02:13.658Z,94.5
2016-06-09T01:02:23.645Z,94.5
2016-06-09T01:02:33.645Z,94.4
2016-06-09T01:02:43.629Z,94.3
2016-06-09T01:02:53.629Z,94.5
2016-06-09T01:03:03.926Z,94.5
2016-06-09T01:03:13.473Z,94.4
2016-06-09T01:03:23.461Z,94.7
2016-06-09T01:03:33.476Z,94.7
2016-06-09T01:03:43.461Z,94.9
2016-06-09T01:03:54.289Z,94.9
2016-06-09T01:04:03.507Z,94.8
2016-06-09T01:04:14.039Z,94.3
2016-06-09T01:04:24.167Z,94.3
2016-06-09T01:04:33.604Z,94.4
2016-06-09T01:04:43.573Z,94.5
2016-06-09T01:04:53.589Z,94.2
2016-06-09T01:05:03.573Z,94.3
2016-06-09T01:05:13.573Z,94.6
2016-06-09T01:05:23.561Z,94.4
2016-06-09T01:05:33.561Z,94.5
2016-06-09T01:05:43.546Z,94.5
2016-06-09T01:05:53.561Z,94.2
2016-06-09T01:06:03.546Z,94.2
2016-06-09T01:06:13.530Z,94.3
2016-06-09T01:06:23.532Z,95
2016-06-09T01:06:33.516Z,94.8
2016-06-09T01:06:43.501Z,94.3
2016-06-09T01:06:53.501Z,94.5
2016-06-09T01:07:03.485Z,94.5
2016-06-09T01:07:13.485Z,94.4
2016-06-09T01:07:23.488Z,94.4
2016-06-09T01:07:33.473Z,94.3
2016-06-09T01:07:43.473Z,94.5
2016-06-09T01:07:53.488Z,94.2
2016-06-09T01:08:03.457Z,94.4
2016-06-09T01:08:13.457Z,95
2016-06-09T01:08:23.460Z,94.5
2016-06-09T01:08:33.460Z,94.3
2016-06-09T01:08:43.444Z,94.4
2016-06-09T01:08:53.444Z,95
2016-06-09T01:09:03.288Z,94.4
2016-06-09T01:09:13.429Z,94.4
2016-06-09T01:09:23.448Z,94.3
2016-06-09T01:09:33.448Z,94.3
2016-06-09T01:09:43.448Z,94.2
2016-06-09T01:09:53.448Z,94.1
2016-06-09T01:10:03.433Z,93.8
2016-06-09T01:10:13.433Z,94.1
2016-06-09T01:10:23.436Z,94.3
2016-06-09T01:10:33.420Z,94.1
2016-06-09T01:10:43.420Z,94.5
2016-06-09T01:10:53.404Z,94.5
2016-06-09T01:11:03.404Z,94.1
2016-06-09T01:11:13.404Z,93.9
2016-06-09T01:11:23.407Z,93.9
2016-06-09T01:11:33.392Z,93.8
2016-06-09T01:11:43.392Z,93.8
2016-06-09T01:11:53.392Z,94.2
2016-06-09T01:12:03.376Z,94.2
2016-06-09T01:12:13.376Z,94.4
2016-06-09T01:12:23.364Z,94.2
2016-06-09T01:12:33.364Z,94.1
2016-06-09T01:12:43.364Z,94.3
2016-06-09T01:12:53.348Z,94.4
2016-06-09T01:13:03.348Z,94.4
2016-06-09T01:13:13.348Z,94.4
2016-06-09T01:13:23.335Z,94.4
2016-06-09T01:13:33.335Z,94.3
2016-06-09T01:13:43.335Z,94.4
2016-06-09T01:13:53.320Z,94.5
2016-06-09T01:14:03.320Z,94.2
2016-06-09T01:14:13.320Z,94.3
2016-06-09T01:14:23.307Z,94.6
2016-06-09T01:14:33.307Z,94.2
2016-06-09T01:14:43.307Z,94.4
2016-06-09T01:14:53.307Z,94.1
2016-06-09T01:15:03.291Z,93.7
2016-06-09T01:15:13.276Z,94
2016-06-09T01:15:23.279Z,93.9
2016-06-09T01:15:33.279Z,94.2
2016-06-09T01:15:43.279Z,94.1
2016-06-09T01:15:53.263Z,94.5
2016-06-09T01:16:03.263Z,94.3
2016-06-09T01:16:13.248Z,94.4
2016-06-09T01:16:23.251Z,93.9
2016-06-09T01:16:33.251Z,94.1
2016-06-09T01:16:43.251Z,94
2016-06-09T01:16:53.235Z,94.2
2016-06-09T01:17:03.235Z,93.6
2016-06-09T01:17:13.219Z,93.9
2016-06-09T01:17:23.222Z,94.2
2016-06-09T01:17:33.222Z,94.4
2016-06-09T01:17:43.207Z,94.2
2016-06-09T01:17:53.207Z,94.4
2016-06-09T01:18:03.347Z,93.8
2016-06-09T01:18:13.191Z,94.1
2016-06-09T01:18:23.054Z,94.2
2016-06-09T01:18:33.195Z,93.9
2016-06-09T01:18:43.195Z,94.3
2016-06-09T01:18:53.179Z,93.4
2016-06-09T01:19:03.195Z,93.4
2016-06-09T01:19:13.179Z,93.4
2016-06-09T01:19:23.166Z,94
2016-06-09T01:19:33.150Z,93.5
2016-06-09T01:19:43.150Z,94.1
2016-06-09T01:19:52.994Z,94
2016-06-09T01:20:03.150Z,93.8
2016-06-09T01:20:13.135Z,94.1
2016-06-09T01:20:23.138Z,93.9
2016-06-09T01:20:33.138Z,94
2016-06-09T01:20:43.122Z,94.2
2016-06-09T01:20:53.122Z,93.8
2016-06-09T01:21:03.138Z,94.2
2016-06-09T01:21:13.106Z,94.1
2016-06-09T01:21:23.110Z,94.1
2016-06-09T01:21:33.126Z,94.3
2016-06-09T01:21:43.095Z,94
2016-06-09T01:21:53.095Z,94
2016-06-09T01:22:03.095Z,94.1
2016-06-09T01:22:13.095Z,94.1
2016-06-09T01:22:23.082Z,93.9
2016-06-09T01:22:33.082Z,94.1
2016-06-09T01:22:43.066Z,94
2016-06-09T01:22:53.066Z,93.9
2016-06-09T01:23:03.066Z,93.8
2016-06-09T01:23:13.066Z,94.1
2016-06-09T01:23:23.053Z,93.8
2016-06-09T01:23:33.037Z,93.6
2016-06-09T01:23:43.037Z,94
2016-06-09T01:23:53.037Z,94.1
2016-06-09T01:24:03.053Z,93.9
2016-06-09T01:24:13.022Z,94.2
2016-06-09T01:24:23.026Z,93.7
2016-06-09T01:24:33.010Z,93.9
2016-06-09T01:24:43.010Z,94
2016-06-09T01:24:53.010Z,93.9
2016-06-09T01:25:02.994Z,94.3
2016-06-09T01:25:13.010Z,93.9
2016-06-09T01:25:22.997Z,94.5
2016-06-09T01:25:32.982Z,94.4
2016-06-09T01:25:42.982Z,94
2016-06-09T01:25:52.982Z,94.2
2016-06-09T01:26:02.982Z,94
2016-06-09T01:26:12.982Z,94.3
2016-06-09T01:26:22.969Z,94.1
2016-06-09T01:26:32.969Z,94.3
2016-06-09T01:26:42.953Z,94
2016-06-09T01:26:52.953Z,94
2016-06-09T01:27:02.938Z,94.1
2016-06-09T01:27:12.938Z,94.2
2016-06-09T01:27:22.940Z,94.1
2016-06-09T01:27:32.940Z,93.9
2016-06-09T01:27:42.924Z,94.4
2016-06-09T01:27:52.924Z,94
2016-06-09T01:28:02.924Z,93.4
2016-06-09T01:28:12.909Z,94
2016-06-09T01:28:22.913Z,94.1
2016-06-09T01:28:32.913Z,93.9
2016-06-09T01:28:42.897Z,93.9
2016-06-09T01:28:52.897Z,93.8
2016-06-09T01:29:02.897Z,94.1
2016-06-09T01:29:12.881Z,93.8
2016-06-09T01:29:22.885Z,94.1
2016-06-09T01:29:32.870Z,94.2
2016-06-09T01:29:42.885Z,93.8
2016-06-09T01:29:52.870Z,94
2016-06-09T01:30:02.870Z,94
2016-06-09T01:30:12.901Z,93.8
2016-06-09T01:30:22.856Z,93.8
2016-06-09T01:30:32.856Z,94.1
2016-06-09T01:30:42.840Z,94.1
2016-06-09T01:30:52.840Z,93.8
2016-06-09T01:31:02.840Z,93.8
2016-06-09T01:31:12.825Z,93.7
2016-06-09T01:31:22.843Z,94.2
2016-06-09T01:31:32.812Z,93.8
2016-06-09T01:31:42.812Z,94.1
2016-06-09T01:31:52.812Z,93.8
2016-06-09T01:32:02.812Z,93.8
2016-06-09T01:32:12.797Z,94
2016-06-09T01:32:22.815Z,93.8
2016-06-09T01:32:32.784Z,94
2016-06-09T01:32:42.784Z,93.9
2016-06-09T01:32:52.784Z,93.8
2016-06-09T01:33:02.768Z,94.2
2016-06-09T01:33:12.768Z,94.1
2016-06-09T01:33:22.772Z,94.1
2016-06-09T01:33:33.569Z,93.9
2016-06-09T01:33:42.757Z,94.2
2016-06-09T01:33:52.897Z,94.1
2016-06-09T01:34:02.741Z,94.1
2016-06-09T01:34:12.600Z,94.2
2016-06-09T01:34:23.102Z,93.9
2016-06-09T01:34:32.727Z,94.1
2016-06-09T01:34:42.759Z,94.1
2016-06-09T01:34:52.712Z,94.1
2016-06-09T01:35:02.712Z,93.6
2016-06-09T01:35:12.712Z,94.2
2016-06-09T01:35:22.699Z,94.3
2016-06-09T01:35:32.699Z,94.1
2016-06-09T01:35:42.699Z,94.2
2016-06-09T01:35:52.684Z,94.1
2016-06-09T01:36:02.684Z,93.9
2016-06-09T01:36:12.684Z,94.1
2016-06-09T01:36:22.672Z,94.2
2016-06-09T01:36:32.672Z,94.1
2016-06-09T01:36:42.672Z,93.8
2016-06-09T01:36:52.656Z,94.2
2016-06-09T01:37:02.656Z,94.1
2016-06-09T01:37:12.656Z,94
2016-06-09T01:37:22.658Z,94.4
2016-06-09T01:37:32.643Z,94.1
2016-06-09T01:37:42.643Z,93.8
2016-06-09T01:37:52.627Z,93.9
2016-06-09T01:38:02.627Z,93.9
2016-06-09T01:38:12.627Z,94.4
2016-06-09T01:38:22.615Z,94.1
2016-06-09T01:38:32.615Z,93.8
2016-06-09T01:38:42.615Z,94.4
2016-06-09T01:38:52.615Z,94
2016-06-09T01:39:02.600Z,94.3
2016-06-09T01:39:12.600Z,93.3
2016-06-09T01:39:22.603Z,93.6
2016-06-09T01:39:32.587Z,94
2016-06-09T01:39:42.572Z,93.4
2016-06-09T01:39:52.572Z,93.4
2016-06-09T01:40:02.572Z,93.5
2016-06-09T01:40:12.572Z,93.7
2016-06-09T01:40:22.559Z,93.7
2016-06-09T01:40:32.559Z,94.1
2016-06-09T01:40:42.543Z,93.5
2016-06-09T01:40:52.559Z,94.1
2016-06-09T01:41:02.543Z,94.1
2016-06-09T01:41:12.528Z,94.2
2016-06-09T01:41:22.531Z,94
2016-06-09T01:41:32.531Z,93.5
2016-06-09T01:41:42.531Z,93.5
2016-06-09T01:41:52.515Z,93.5
2016-06-09T01:42:02.515Z,93.4
2016-06-09T01:42:12.515Z,93.6
2016-06-09T01:42:22.502Z,93.3
2016-06-09T01:42:32.502Z,93.7
2016-06-09T01:42:42.502Z,93.5
2016-06-09T01:42:52.487Z,93.5
2016-06-09T01:43:02.487Z,93.5
2016-06-09T01:43:12.487Z,93.4
2016-06-09T01:43:22.474Z,93.2
2016-06-09T01:43:32.474Z,93.5
2016-06-09T01:43:42.474Z,93.3
2016-06-09T01:43:52.459Z,93.6
2016-06-09T01:44:02.459Z,93.9
2016-06-09T01:44:12.459Z,93.9
2016-06-09T01:44:22.446Z,94.1
2016-06-09T01:44:32.290Z,94.1
2016-06-09T01:44:42.430Z,93.3
2016-06-09T01:44:52.446Z,93.7
2016-06-09T01:45:02.430Z,93.5
2016-06-09T01:45:12.415Z,93.5
2016-06-09T01:45:22.419Z,93.5
2016-06-09T01:45:32.419Z,93.9
2016-06-09T01:45:42.403Z,94
2016-06-09T01:45:52.403Z,94
2016-06-09T01:46:02.403Z,93.7
2016-06-09T01:46:12.387Z,94.3
2016-06-09T01:46:22.389Z,94
2016-06-09T01:46:32.389Z,94.1
2016-06-09T01:46:42.389Z,93.9
2016-06-09T01:46:52.374Z,94.2
2016-06-09T01:47:02.374Z,94.3
2016-06-09T01:47:12.358Z,94
2016-06-09T01:47:22.362Z,93.5
2016-06-09T01:47:32.362Z,93.3
2016-06-09T01:47:42.347Z,93.7
2016-06-09T01:47:52.347Z,93.2
2016-06-09T01:48:02.347Z,93.2
2016-06-09T01:48:12.331Z,93.4
2016-06-09T01:48:22.818Z,93.7
2016-06-09T01:48:32.678Z,93.5
2016-06-09T01:48:42.334Z,93.4
2016-06-09T01:48:52.162Z,93.5
2016-06-09T01:49:02.506Z,93.5
2016-06-09T01:49:13.193Z,93.2
2016-06-09T01:49:22.306Z,93.5
2016-06-09T01:49:32.306Z,93.4
2016-06-09T01:49:42.290Z,93.2
2016-06-09T01:49:52.290Z,93.3
2016-06-09T01:50:02.290Z,93.5
2016-06-09T01:50:12.274Z,93.5
2016-06-09T01:50:22.277Z,93.6
2016-06-09T01:50:32.277Z,93.7
2016-06-09T01:50:42.262Z,93.4
2016-06-09T01:50:52.262Z,93
2016-06-09T01:51:02.262Z,93.1
2016-06-09T01:51:12.246Z,92.8
2016-06-09T01:51:22.249Z,93.3
2016-06-09T01:51:32.249Z,93.2
2016-06-09T01:51:42.249Z,93.5
2016-06-09T01:51:52.234Z,93.4
2016-06-09T01:52:02.234Z,93.5
2016-06-09T01:52:12.218Z,93.4
2016-06-09T01:52:22.221Z,93.7
2016-06-09T01:52:32.221Z,93.6
2016-06-09T01:52:42.205Z,93.5
2016-06-09T01:52:52.205Z,93.5
2016-06-09T01:53:02.190Z,93.6
2016-06-09T01:53:12.190Z,93.6
2016-06-09T01:53:22.193Z,93.3
2016-06-09T01:53:32.177Z,93.1
2016-06-09T01:53:42.193Z,93.1
2016-06-09T01:53:52.177Z,93.3
2016-06-09T01:54:02.161Z,93
2016-06-09T01:54:12.177Z,92.9
2016-06-09T01:54:22.007Z,93.2
2016-06-09T01:54:32.163Z,93.5
2016-06-09T01:54:42.148Z,93.3
2016-06-09T01:54:52.148Z,93.5
2016-06-09T01:55:02.132Z,93.6
2016-06-09T01:55:12.148Z,93.4
2016-06-09T01:55:22.136Z,93.7
2016-06-09T01:55:32.136Z,93.6
2016-06-09T01:55:42.121Z,93.7
2016-06-09T01:55:52.121Z,93.7
2016-06-09T01:56:02.121Z,93.2
2016-06-09T01:56:12.105Z,93.4
2016-06-09T01:56:22.108Z,93.7
2016-06-09T01:56:32.108Z,93.4
2016-06-09T01:56:42.092Z,93.4
2016-06-09T01:56:51.936Z,93.5
2016-06-09T01:57:02.077Z,93.5
2016-06-09T01:57:12.077Z,93.4
2016-06-09T01:57:22.080Z,93.6
2016-06-09T01:57:32.080Z,93.4
2016-06-09T01:57:42.064Z,93.7
2016-06-09T01:57:52.064Z,93.4
2016-06-09T01:58:02.048Z,93.4
2016-06-09T01:58:12.048Z,93.5
2016-06-09T01:58:22.051Z,93.4
2016-06-09T01:58:31.895Z,93.5
2016-06-09T01:58:42.036Z,93.6
2016-06-09T01:58:52.036Z,93.2
2016-06-09T01:59:02.020Z,93.2
2016-06-09T01:59:12.020Z,93.4
2016-06-09T01:59:22.024Z,93.4
2016-06-09T01:59:32.009Z,93.2
2016-06-09T01:59:42.009Z,93
2016-06-09T01:59:51.993Z,93.3
2016-06-09T02:00:01.993Z,93.1
2016-06-09T02:00:11.993Z,93.3
2016-06-09T02:00:21.995Z,93.2
2016-06-09T02:00:31.979Z,93.1
2016-06-09T02:00:41.979Z,93
2016-06-09T02:00:51.964Z,93.6
2016-06-09T02:01:01.964Z,93.7
2016-06-09T02:01:11.964Z,93.7
2016-06-09T02:01:21.967Z,93.7
2016-06-09T02:01:31.951Z,93.7
2016-06-09T02:01:41.951Z,93.5
2016-06-09T02:01:51.935Z,93.5
2016-06-09T02:02:01.935Z,93.7
2016-06-09T02:02:11.920Z,93.7
2016-06-09T02:02:21.939Z,93.7
2016-06-09T02:02:31.924Z,93.2
2016-06-09T02:02:41.924Z,93.6
2016-06-09T02:02:51.908Z,93.5
2016-06-09T02:03:01.908Z,93.3
2016-06-09T02:03:11.908Z,93.2
2016-06-09T02:03:22.896Z,94
2016-06-09T02:03:31.911Z,93.2
2016-06-09T02:03:42.208Z,93.5
2016-06-09T02:03:51.896Z,93.3
2016-06-09T02:04:01.880Z,93.2
2016-06-09T02:04:11.880Z,93.9
2016-06-09T02:04:21.883Z,93.5
2016-06-09T02:04:31.883Z,93.7
2016-06-09T02:04:41.867Z,93.3
2016-06-09T02:04:52.039Z,93.5
2016-06-09T02:05:01.852Z,93.3
2016-06-09T02:05:11.695Z,93.5
2016-06-09T02:05:21.855Z,93.4
2016-06-09T02:05:31.839Z,93.6
2016-06-09T02:05:41.839Z,93.7
2016-06-09T02:05:51.823Z,93.5
2016-06-09T02:06:01.823Z,93.5
2016-06-09T02:06:11.823Z,93.6
2016-06-09T02:06:21.826Z,93.6
2016-06-09T02:06:31.811Z,93.4
2016-06-09T02:06:41.795Z,93.6
2016-06-09T02:06:51.795Z,93.5
2016-06-09T02:07:01.795Z,93.5
2016-06-09T02:07:11.795Z,93.6
2016-06-09T02:07:21.783Z,93.4
2016-06-09T02:07:31.783Z,93.3
2016-06-09T02:07:41.783Z,93.3
2016-06-09T02:07:51.767Z,93.4
2016-06-09T02:08:01.767Z,94.1
2016-06-09T02:08:11.767Z,93.8
2016-06-09T02:08:21.754Z,94
2016-06-09T02:08:31.754Z,93.6
2016-06-09T02:08:41.739Z,93.6
2016-06-09T02:08:51.739Z,93.5
2016-06-09T02:09:01.739Z,94.3
2016-06-09T02:09:11.739Z,94
2016-06-09T02:09:21.726Z,94
2016-06-09T02:09:31.726Z,93.5
2016-06-09T02:09:41.710Z,93.6
2016-06-09T02:09:51.726Z,94
2016-06-09T02:10:01.710Z,93.2
2016-06-09T02:10:11.710Z,93.4
2016-06-09T02:10:21.698Z,93.4
2016-06-09T02:10:31.698Z,93.5
2016-06-09T02:10:41.698Z,93.5
2016-06-09T02:10:51.682Z,93.6
2016-06-09T02:11:01.682Z,93.4
2016-06-09T02:11:11.667Z,94
2016-06-09T02:11:21.670Z,93.6
2016-06-09T02:11:31.670Z,93.4
2016-06-09T02:11:41.654Z,93.6
2016-06-09T02:11:51.654Z,93.3
2016-06-09T02:12:01.654Z,93.4
2016-06-09T02:12:11.638Z,93.5
2016-06-09T02:12:21.641Z,93.4
2016-06-09T02:12:31.641Z,93.2
2016-06-09T02:12:41.626Z,93.4
2016-06-09T02:12:51.641Z,93.6
2016-06-09T02:13:01.626Z,93.7
2016-06-09T02:13:11.610Z,93.6
2016-06-09T02:13:21.614Z,93.6
2016-06-09T02:13:31.614Z,93.2
2016-06-09T02:13:41.598Z,94
2016-06-09T02:13:51.598Z,94.3